createdAt,value
2022-10-13T00:00:01.970Z,22.10
2022-10-13T00:02:41.316Z,22.10
2022-10-13T00:05:11.225Z,22.10
2022-10-13T00:07:40.502Z,22.10
2022-10-13T00:10:10.334Z,22.10
2022-10-13T00:12:40.581Z,22.10
2022-10-13T00:15:13.744Z,22.10
2022-10-13T00:17:43.100Z,22.10
2022-10-13T00:20:13.251Z,22.10
2022-10-13T00:22:42.525Z,22.10
2022-10-13T00:25:11.752Z,22.10
2022-10-13T00:27:40.875Z,22.10
2022-10-13T00:30:11.009Z,22.10
2022-10-13T00:32:42.750Z,22.10
2022-10-13T00:35:12.813Z,22.10
2022-10-13T00:37:41.977Z,22.10
2022-10-13T00:40:12.077Z,22.00
2022-10-13T00:42:43.157Z,22.00
2022-10-13T00:45:24.744Z,22.00
2022-10-13T00:47:59.064Z,22.00
2022-10-13T00:50:33.386Z,22.00
2022-10-13T00:53:06.006Z,22.00
2022-10-13T00:55:37.492Z,22.00
2022-10-13T00:58:09.423Z,22.00
2022-10-13T01:00:38.818Z,22.00
2022-10-13T01:03:09.526Z,22.00
2022-10-13T01:05:40.247Z,22.00
2022-10-13T01:08:10.506Z,22.00
2022-10-13T01:10:54.385Z,22.00
2022-10-13T01:13:30.413Z,22.00
2022-10-13T01:16:14.476Z,22.00
2022-10-13T01:18:52.923Z,22.00
2022-10-13T01:21:29.914Z,22.00
2022-10-13T01:24:21.308Z,22.00
2022-10-13T01:27:05.797Z,22.00
2022-10-13T01:30:04.571Z,22.00
2022-10-13T01:35:49.923Z,21.90
2022-10-13T01:38:28.083Z,21.90
2022-10-13T01:41:06.429Z,21.90
2022-10-13T01:43:40.617Z,21.90
2022-10-13T01:46:15.704Z,21.90
2022-10-13T01:48:46.853Z,21.90
2022-10-13T01:51:20.232Z,21.90
2022-10-13T01:53:50.648Z,21.90
2022-10-13T01:56:19.812Z,21.90
2022-10-13T01:58:51.381Z,21.90
2022-10-13T02:01:35.900Z,21.90
2022-10-13T02:04:17.788Z,21.90
2022-10-13T02:06:53.239Z,21.90
2022-10-13T02:09:29.658Z,21.90
2022-10-13T02:12:03.819Z,21.90
2022-10-13T02:14:38.955Z,21.90
2022-10-13T02:17:10.546Z,21.90
2022-10-13T02:19:42.152Z,21.90
2022-10-13T02:22:13.130Z,21.90
2022-10-13T02:24:42.831Z,21.90
2022-10-13T02:27:12.226Z,21.90
2022-10-13T02:29:52.191Z,21.90
2022-10-13T02:32:23.123Z,21.90
2022-10-13T02:34:55.669Z,21.90
2022-10-13T02:37:25.812Z,21.90
2022-10-13T02:39:55.064Z,21.80
2022-10-13T02:42:24.289Z,21.80
2022-10-13T02:44:57.870Z,21.90
2022-10-13T02:47:28.463Z,21.80
2022-10-13T02:49:57.592Z,21.80
2022-10-13T02:52:26.747Z,21.80
2022-10-13T02:54:55.944Z,21.80
2022-10-13T02:57:25.094Z,21.80
2022-10-13T02:59:54.839Z,21.80
2022-10-13T03:02:24.631Z,21.80
2022-10-13T03:04:55.335Z,21.80
2022-10-13T03:07:24.575Z,21.80
2022-10-13T03:09:53.696Z,21.80
2022-10-13T03:12:23.311Z,21.80
2022-10-13T03:14:52.653Z,21.80
2022-10-13T03:17:21.831Z,21.80
2022-10-13T03:19:50.989Z,21.80
2022-10-13T03:22:22.256Z,21.80
2022-10-13T03:24:54.397Z,21.80
2022-10-13T03:27:23.594Z,21.80
2022-10-13T03:29:52.688Z,21.80
2022-10-13T03:32:22.154Z,21.80
2022-10-13T03:34:52.359Z,21.70
2022-10-13T03:37:23.048Z,21.70
2022-10-13T03:39:52.206Z,21.70
2022-10-13T03:42:21.795Z,21.70
2022-10-13T03:44:56.082Z,21.70
2022-10-13T03:47:25.978Z,21.70
2022-10-13T03:49:56.149Z,21.70
2022-10-13T03:52:26.812Z,21.70
2022-10-13T03:54:56.123Z,21.70
2022-10-13T03:57:25.315Z,21.70
2022-10-13T03:59:56.186Z,21.70
2022-10-13T04:02:28.014Z,21.70
2022-10-13T04:04:57.664Z,21.70
2022-10-13T04:07:28.211Z,21.70
2022-10-13T04:09:57.353Z,21.70
2022-10-13T04:12:27.089Z,21.70
2022-10-13T04:14:56.725Z,21.70
2022-10-13T04:17:25.955Z,21.80
2022-10-13T04:19:55.233Z,21.80
2022-10-13T04:22:24.483Z,21.90
2022-10-13T04:24:55.015Z,22.00
2022-10-13T04:27:24.172Z,22.10
2022-10-13T04:29:53.301Z,22.10
2022-10-13T04:32:22.886Z,22.20
2022-10-13T04:34:52.317Z,22.20
2022-10-13T04:37:21.472Z,22.30
2022-10-13T04:39:50.728Z,22.30
2022-10-13T04:42:21.734Z,22.40
2022-10-13T04:44:51.386Z,22.40
2022-10-13T04:47:23.438Z,22.50
2022-10-13T04:49:52.649Z,22.50
2022-10-13T04:52:22.068Z,22.50
2022-10-13T04:54:52.361Z,22.60
2022-10-13T04:57:23.045Z,22.60
2022-10-13T04:59:52.286Z,22.50
2022-10-13T05:02:21.934Z,22.50
2022-10-13T05:04:51.365Z,22.50
2022-10-13T05:07:22.595Z,22.40
2022-10-13T05:09:52.763Z,22.40
2022-10-13T05:12:23.473Z,22.40
2022-10-13T05:14:53.492Z,22.30
2022-10-13T05:17:22.677Z,22.30
2022-10-13T05:19:51.986Z,22.30
2022-10-13T05:22:21.584Z,22.30
2022-10-13T05:24:52.053Z,22.30
2022-10-13T05:27:23.335Z,22.20
2022-10-13T05:29:52.548Z,22.20
2022-10-13T05:32:22.074Z,22.20
2022-10-13T05:34:51.508Z,22.20
2022-10-13T05:37:22.631Z,22.20
2022-10-13T05:39:52.013Z,22.20
2022-10-13T05:42:22.898Z,22.20
2022-10-13T05:44:53.013Z,22.20
2022-10-13T05:47:26.883Z,22.20
2022-10-13T05:49:58.384Z,22.10
2022-10-13T05:52:29.268Z,22.10
2022-10-13T05:55:01.854Z,22.10
2022-10-13T05:57:34.715Z,22.10
2022-10-13T06:00:07.008Z,22.00
2022-10-13T06:02:45.826Z,22.00
2022-10-13T06:05:18.125Z,22.00
2022-10-13T06:07:48.423Z,22.00
2022-10-13T06:10:17.898Z,22.00
2022-10-13T06:12:48.557Z,21.90
2022-10-13T06:15:17.831Z,21.90
2022-10-13T06:17:47.062Z,21.90
2022-10-13T06:20:16.530Z,21.90
2022-10-13T06:22:46.571Z,21.90
2022-10-13T06:25:16.112Z,21.90
2022-10-13T06:27:45.352Z,21.90
2022-10-13T06:30:16.041Z,21.90
2022-10-13T06:32:45.191Z,21.90
2022-10-13T06:35:14.714Z,21.90
2022-10-13T06:37:44.000Z,21.90
2022-10-13T06:40:14.173Z,21.90
2022-10-13T06:42:43.301Z,21.90
2022-10-13T06:45:12.777Z,21.90
2022-10-13T06:47:44.463Z,21.90
2022-10-13T06:50:14.858Z,21.80
2022-10-13T06:52:44.605Z,21.80
2022-10-13T06:55:13.758Z,21.80
2022-10-13T06:57:43.014Z,21.80
2022-10-13T07:00:12.957Z,21.80
2022-10-13T07:02:43.724Z,21.80
2022-10-13T07:05:14.988Z,21.80
2022-10-13T07:07:44.157Z,21.80
2022-10-13T07:10:13.329Z,21.80
2022-10-13T07:12:42.831Z,21.80
2022-10-13T07:15:12.528Z,21.80
2022-10-13T07:17:41.693Z,21.80
2022-10-13T07:20:13.182Z,21.80
2022-10-13T07:22:42.297Z,21.80
2022-10-13T07:25:11.705Z,21.80
2022-10-13T07:27:41.154Z,21.80
2022-10-13T07:30:11.081Z,21.80
2022-10-13T07:32:42.172Z,21.80
2022-10-13T07:35:13.976Z,21.80
2022-10-13T07:37:43.274Z,21.80
2022-10-13T07:40:13.396Z,21.80
2022-10-13T07:42:42.737Z,21.80
2022-10-13T07:45:12.526Z,21.70
2022-10-13T07:47:41.730Z,21.70
2022-10-13T07:50:13.095Z,21.70
2022-10-13T07:52:42.567Z,21.70
2022-10-13T07:55:14.361Z,21.70
2022-10-13T07:57:43.766Z,21.70
2022-10-13T08:00:14.039Z,21.70
2022-10-13T08:02:43.308Z,21.70
2022-10-13T08:05:14.077Z,21.70
2022-10-13T08:07:43.304Z,21.70
2022-10-13T08:10:13.120Z,21.70
2022-10-13T08:12:42.446Z,21.70
2022-10-13T08:15:12.519Z,21.70
2022-10-13T08:17:41.966Z,21.70
2022-10-13T08:20:12.062Z,21.70
2022-10-13T08:22:42.847Z,21.70
2022-10-13T08:25:12.570Z,21.70
2022-10-13T08:27:50.920Z,21.70
2022-10-13T08:30:21.221Z,21.70
2022-10-13T08:32:50.555Z,21.70
2022-10-13T08:35:19.981Z,21.70
2022-10-13T08:37:50.649Z,21.70
2022-10-13T08:40:24.117Z,21.70
2022-10-13T08:42:59.417Z,21.70
2022-10-13T08:45:47.173Z,21.70
2022-10-13T08:48:19.616Z,21.70
2022-10-13T08:50:52.916Z,21.70
2022-10-13T08:53:29.057Z,21.70
2022-10-13T08:56:00.348Z,21.70
2022-10-13T08:58:33.744Z,21.70
2022-10-13T09:01:14.444Z,21.70
2022-10-13T09:03:54.405Z,21.70
2022-10-13T09:06:29.203Z,21.70
2022-10-13T09:09:02.028Z,21.70
2022-10-13T09:11:34.063Z,21.70
2022-10-13T09:14:05.844Z,21.70
2022-10-13T09:16:38.596Z,21.70
2022-10-13T09:19:21.089Z,21.70
2022-10-13T09:21:50.798Z,21.70
2022-10-13T09:24:23.146Z,21.70
2022-10-13T09:27:03.300Z,21.70
2022-10-13T09:29:34.731Z,21.70
2022-10-13T09:32:17.784Z,21.70
2022-10-13T09:34:47.993Z,21.80
2022-10-13T09:37:22.398Z,21.70
2022-10-13T09:40:13.250Z,21.70
2022-10-13T09:42:42.800Z,21.80
2022-10-13T09:45:17.148Z,21.70
2022-10-13T09:47:52.276Z,21.70
2022-10-13T09:50:24.411Z,21.70
2022-10-13T09:52:54.543Z,21.70
2022-10-13T09:55:33.896Z,21.70
2022-10-13T09:58:10.253Z,21.80
2022-10-13T10:00:41.552Z,21.80
2022-10-13T10:03:17.485Z,21.80
2022-10-13T10:05:51.865Z,21.80
2022-10-13T10:08:33.747Z,21.80
2022-10-13T10:11:18.547Z,21.80
2022-10-13T10:13:48.203Z,21.80
2022-10-13T10:16:31.299Z,21.80
2022-10-13T10:19:07.664Z,21.80
2022-10-13T10:21:44.910Z,21.80
2022-10-13T10:24:24.967Z,21.80
2022-10-13T10:27:03.035Z,21.80
2022-10-13T10:29:45.263Z,21.80
2022-10-13T10:32:28.645Z,21.80
2022-10-13T10:35:03.527Z,21.80
2022-10-13T10:37:55.671Z,21.80
2022-10-13T10:40:38.795Z,21.80
2022-10-13T10:43:38.353Z,21.80
2022-10-13T10:46:19.962Z,21.80
2022-10-13T10:48:51.130Z,21.80
2022-10-13T10:51:20.934Z,21.80
2022-10-13T10:53:59.103Z,21.80
2022-10-13T10:56:33.844Z,21.80
2022-10-13T10:59:24.281Z,21.80
2022-10-13T11:02:03.806Z,21.80
2022-10-13T11:04:42.424Z,21.80
2022-10-13T11:07:35.978Z,21.80
2022-10-13T11:10:21.606Z,21.80
2022-10-13T11:13:28.291Z,21.80
2022-10-13T11:15:58.954Z,21.80
2022-10-13T11:19:05.901Z,21.80
2022-10-13T11:24:58.273Z,21.80
2022-10-13T11:27:38.427Z,21.80
2022-10-13T11:30:42.810Z,21.80
2022-10-13T11:33:36.065Z,21.80
2022-10-13T11:36:39.536Z,21.80
2022-10-13T11:39:36.225Z,21.80
2022-10-13T11:42:16.994Z,21.80
2022-10-13T11:44:55.271Z,21.80
2022-10-13T11:47:54.197Z,21.80
2022-10-13T11:50:36.540Z,21.80
2022-10-13T11:53:16.365Z,21.80
2022-10-13T11:55:51.165Z,21.80
2022-10-13T11:58:22.465Z,21.80
2022-10-13T12:00:57.207Z,21.80
2022-10-13T12:03:31.117Z,21.80
2022-10-13T12:06:05.840Z,21.80
2022-10-13T12:08:37.314Z,21.80
2022-10-13T12:11:10.461Z,21.80
2022-10-13T12:13:39.925Z,21.80
2022-10-13T12:16:09.697Z,21.80
2022-10-13T12:18:42.156Z,21.80
2022-10-13T12:21:16.349Z,21.80
2022-10-13T12:23:45.748Z,21.80
2022-10-13T12:26:17.967Z,21.80
2022-10-13T12:28:52.289Z,21.80
2022-10-13T12:31:24.867Z,21.80
2022-10-13T12:33:56.165Z,21.80
2022-10-13T12:36:31.288Z,21.80
2022-10-13T12:39:03.618Z,21.80
2022-10-13T12:41:34.799Z,21.80
2022-10-13T12:44:06.692Z,21.80
2022-10-13T12:46:40.990Z,21.80
2022-10-13T12:49:16.136Z,21.80
2022-10-13T12:51:50.454Z,21.80
2022-10-13T12:54:23.617Z,21.80
2022-10-13T12:56:56.494Z,21.80
2022-10-13T12:59:27.882Z,21.80
2022-10-13T13:01:59.956Z,21.70
2022-10-13T13:04:44.056Z,21.80
2022-10-13T13:07:31.495Z,21.80
2022-10-13T13:10:15.184Z,21.80
2022-10-13T13:12:44.994Z,21.80
2022-10-13T13:15:32.095Z,21.80
2022-10-13T13:18:24.817Z,21.80
2022-10-13T13:20:54.461Z,21.80
2022-10-13T13:23:26.821Z,21.80
2022-10-13T13:26:03.594Z,21.80
2022-10-13T13:28:34.065Z,21.80
2022-10-13T13:31:06.353Z,21.70
2022-10-13T13:33:35.655Z,21.70
2022-10-13T13:36:05.015Z,21.70
2022-10-13T13:38:35.732Z,21.80
2022-10-13T13:41:05.943Z,21.80
2022-10-13T13:43:35.254Z,21.80
2022-10-13T13:46:06.061Z,21.70
2022-10-13T13:48:35.399Z,21.70
2022-10-13T13:51:07.328Z,21.80
2022-10-13T13:53:38.963Z,21.70
2022-10-13T13:56:13.285Z,21.80
2022-10-13T13:58:42.786Z,21.70
2022-10-13T14:01:12.579Z,21.80
2022-10-13T14:03:42.132Z,21.80
2022-10-13T14:06:19.826Z,21.80
2022-10-13T14:08:51.216Z,21.80
2022-10-13T14:11:20.531Z,21.80
2022-10-13T14:13:49.943Z,21.80
2022-10-13T14:16:26.799Z,21.80
2022-10-13T14:18:58.754Z,21.80
2022-10-13T14:21:28.654Z,21.80
2022-10-13T14:24:00.830Z,21.80
2022-10-13T14:26:30.145Z,21.70
2022-10-13T14:28:59.484Z,21.70
2022-10-13T14:31:28.887Z,21.70
2022-10-13T14:33:58.187Z,21.70
2022-10-13T14:36:30.121Z,21.70
2022-10-13T14:39:01.189Z,21.70
2022-10-13T14:41:30.624Z,21.70
2022-10-13T14:44:00.032Z,21.70
2022-10-13T14:46:29.416Z,21.70
2022-10-13T14:48:59.117Z,21.70
2022-10-13T14:51:28.420Z,21.70
2022-10-13T14:53:57.707Z,21.70
2022-10-13T14:56:30.571Z,21.70
2022-10-13T14:59:02.514Z,21.70
2022-10-13T15:01:39.487Z,21.70
2022-10-13T15:04:08.884Z,21.70
2022-10-13T15:06:40.868Z,21.70
2022-10-13T15:09:12.042Z,21.70
2022-10-13T15:11:42.741Z,21.70
2022-10-13T15:14:12.151Z,21.70
2022-10-13T15:16:41.435Z,21.70
2022-10-13T15:19:10.638Z,21.80
2022-10-13T15:21:40.025Z,21.80
2022-10-13T15:24:09.556Z,21.80
2022-10-13T15:26:38.694Z,21.80
2022-10-13T15:29:09.358Z,21.80
2022-10-13T15:31:38.714Z,21.80
2022-10-13T15:34:07.947Z,21.80
2022-10-13T15:36:37.172Z,21.80
2022-10-13T15:39:07.167Z,21.80
2022-10-13T15:41:36.480Z,21.80
2022-10-13T15:44:05.710Z,21.80
2022-10-13T15:46:37.846Z,21.80
2022-10-13T15:49:09.062Z,21.80
2022-10-13T15:51:38.569Z,21.80
2022-10-13T15:54:07.941Z,21.80
2022-10-13T15:56:37.198Z,21.80
2022-10-13T15:59:06.582Z,21.80
2022-10-13T16:01:37.343Z,21.80
2022-10-13T16:04:06.800Z,21.80
2022-10-13T16:06:37.457Z,21.80
2022-10-13T16:09:06.897Z,21.80
2022-10-13T16:11:36.129Z,21.80
2022-10-13T16:14:05.530Z,21.80
2022-10-13T16:16:34.758Z,21.80
2022-10-13T16:19:05.468Z,21.80
2022-10-13T16:21:34.968Z,21.90
2022-10-13T16:24:08.181Z,21.80
2022-10-13T16:26:37.581Z,21.80
2022-10-13T16:29:06.882Z,21.80
2022-10-13T16:31:36.175Z,21.80
2022-10-13T16:34:06.966Z,21.80
2022-10-13T16:36:36.343Z,21.80
2022-10-13T16:39:05.693Z,21.80
2022-10-13T16:41:35.030Z,21.80
2022-10-13T16:44:04.377Z,21.80
2022-10-13T16:46:34.419Z,21.80
2022-10-13T16:49:04.058Z,21.80
2022-10-13T16:51:34.809Z,21.80
2022-10-13T16:54:04.719Z,21.80
2022-10-13T16:56:34.891Z,21.80
2022-10-13T16:59:06.117Z,21.80
2022-10-13T17:01:36.473Z,21.80
2022-10-13T17:04:06.746Z,21.80
2022-10-13T17:06:39.578Z,21.80
2022-10-13T17:09:09.290Z,21.80
2022-10-13T17:11:38.782Z,21.80
2022-10-13T17:14:08.504Z,21.80
2022-10-13T17:16:38.073Z,21.80
2022-10-13T17:19:07.934Z,21.80
2022-10-13T17:21:39.786Z,21.80
2022-10-13T17:24:11.078Z,21.80
2022-10-13T17:26:40.422Z,21.80
2022-10-13T17:29:09.559Z,21.80
2022-10-13T17:31:38.798Z,21.80
2022-10-13T17:34:09.519Z,21.80
2022-10-13T17:36:40.101Z,21.80
2022-10-13T17:39:13.913Z,21.80
2022-10-13T17:41:43.774Z,21.80
2022-10-13T17:44:13.013Z,21.80
2022-10-13T17:46:42.208Z,21.80
2022-10-13T17:49:13.244Z,21.80
2022-10-13T17:51:45.469Z,21.80
2022-10-13T17:54:16.667Z,21.80
2022-10-13T17:56:46.687Z,21.80
2022-10-13T17:59:16.478Z,21.80
2022-10-13T18:01:46.448Z,21.80
2022-10-13T18:04:18.236Z,21.80
2022-10-13T18:06:49.503Z,21.70
2022-10-13T18:09:21.861Z,21.70
2022-10-13T18:11:52.378Z,21.70
2022-10-13T18:14:22.935Z,21.80
2022-10-13T18:16:53.273Z,21.80
2022-10-13T18:19:23.788Z,21.80
2022-10-13T18:21:55.426Z,21.80
2022-10-13T18:24:25.506Z,21.80
2022-10-13T18:26:55.648Z,21.80
2022-10-13T18:29:26.570Z,21.80
2022-10-13T18:31:57.808Z,21.80
2022-10-13T18:34:27.767Z,21.80
2022-10-13T18:36:58.950Z,21.80
2022-10-13T18:39:30.263Z,21.80
2022-10-13T18:42:00.163Z,21.80
2022-10-13T18:44:36.894Z,21.80
2022-10-13T18:47:07.269Z,21.80
2022-10-13T18:49:37.690Z,21.80
2022-10-13T18:52:09.015Z,21.80
2022-10-13T18:54:42.503Z,21.80
2022-10-13T18:57:12.533Z,21.80
2022-10-13T18:59:42.725Z,21.80
2022-10-13T19:02:15.481Z,21.80
2022-10-13T19:04:45.453Z,21.80
2022-10-13T19:07:16.780Z,21.80
2022-10-13T19:09:46.558Z,21.80
2022-10-13T19:12:16.405Z,21.80
2022-10-13T19:14:45.970Z,21.90
2022-10-13T19:17:15.290Z,21.90
2022-10-13T19:19:46.037Z,21.90
2022-10-13T19:22:16.670Z,21.90
2022-10-13T19:24:46.024Z,21.90
2022-10-13T19:27:16.881Z,21.90
2022-10-13T19:29:45.984Z,21.90
2022-10-13T19:32:15.273Z,21.90
2022-10-13T19:34:44.528Z,21.90
2022-10-13T19:37:16.956Z,21.90
2022-10-13T19:39:46.395Z,21.80
2022-10-13T19:42:15.541Z,21.90
2022-10-13T19:44:44.762Z,21.90
2022-10-13T19:47:14.088Z,21.80
2022-10-13T19:49:43.410Z,21.80
2022-10-13T19:52:12.554Z,21.80
2022-10-13T19:54:43.961Z,21.80
2022-10-13T19:57:13.198Z,21.80
2022-10-13T19:59:47.382Z,21.80
2022-10-13T20:02:17.399Z,21.80
2022-10-13T20:04:46.679Z,21.80
2022-10-13T20:07:15.757Z,21.80
2022-10-13T20:09:46.619Z,21.80
2022-10-13T20:12:15.811Z,21.80
2022-10-13T20:14:48.760Z,21.80
2022-10-13T20:17:17.869Z,21.80
2022-10-13T20:19:47.143Z,21.80
2022-10-13T20:22:16.228Z,21.80
2022-10-13T20:24:47.679Z,21.80
2022-10-13T20:27:16.979Z,21.80
2022-10-13T20:29:46.135Z,21.80
2022-10-13T20:32:15.734Z,21.80
2022-10-13T20:34:45.287Z,21.70
2022-10-13T20:37:14.356Z,21.80
2022-10-13T20:39:43.455Z,21.70
2022-10-13T20:42:14.387Z,21.70
2022-10-13T20:44:43.722Z,21.70
2022-10-13T20:47:12.786Z,21.70
2022-10-13T20:49:41.953Z,21.70
2022-10-13T20:52:11.047Z,21.70
2022-10-13T20:54:40.219Z,21.70
2022-10-13T20:57:09.513Z,21.70
2022-10-13T20:59:40.244Z,21.70
2022-10-13T21:02:12.250Z,21.70
2022-10-13T21:04:41.816Z,21.70
2022-10-13T21:07:10.898Z,21.70
2022-10-13T21:09:40.125Z,21.70
2022-10-13T21:12:09.510Z,21.70
2022-10-13T21:14:40.091Z,21.70
2022-10-13T21:17:09.256Z,21.70
2022-10-13T21:19:38.586Z,21.70
2022-10-13T21:22:07.825Z,21.70
2022-10-13T21:24:37.026Z,21.70
2022-10-13T21:27:06.291Z,21.70
2022-10-13T21:29:35.432Z,21.70
2022-10-13T21:32:06.065Z,21.70
2022-10-13T21:34:35.465Z,21.70
2022-10-13T21:37:04.715Z,21.70
2022-10-13T21:39:33.767Z,21.60
2022-10-13T21:42:02.871Z,21.60
2022-10-13T21:44:32.055Z,21.60
2022-10-13T21:47:01.195Z,21.60
2022-10-13T21:49:31.839Z,21.60
2022-10-13T21:52:00.924Z,21.60
2022-10-13T21:54:30.128Z,21.60
2022-10-13T21:56:59.295Z,21.60
2022-10-13T21:59:28.704Z,21.60
2022-10-13T22:01:57.814Z,21.60
2022-10-13T22:04:27.012Z,21.60
2022-10-13T22:06:57.636Z,21.60
2022-10-13T22:09:27.574Z,21.60
2022-10-13T22:12:00.342Z,21.60
2022-10-13T22:14:30.083Z,21.60
2022-10-13T22:16:59.263Z,21.60
2022-10-13T22:19:28.358Z,21.60
2022-10-13T22:21:58.877Z,21.60
2022-10-13T22:24:28.867Z,21.60
2022-10-13T22:26:58.391Z,21.60
2022-10-13T22:29:27.745Z,21.60
2022-10-13T22:31:58.292Z,21.60
2022-10-13T22:34:27.844Z,21.60
2022-10-13T22:36:58.325Z,21.60
2022-10-13T22:39:27.706Z,21.60
2022-10-13T22:41:57.471Z,21.50
2022-10-13T22:44:26.984Z,21.60
2022-10-13T22:46:56.254Z,21.50
2022-10-13T22:49:25.294Z,21.60
2022-10-13T22:51:54.624Z,21.60
2022-10-13T22:54:25.296Z,21.50
2022-10-13T22:56:54.955Z,21.50
2022-10-13T22:59:24.233Z,21.50
2022-10-13T23:01:53.359Z,21.50
2022-10-13T23:04:22.496Z,21.50
2022-10-13T23:06:51.625Z,21.50
2022-10-13T23:09:20.725Z,21.50
2022-10-13T23:11:52.166Z,21.50
2022-10-13T23:14:24.182Z,21.50
2022-10-13T23:16:53.285Z,21.50
2022-10-13T23:19:22.461Z,21.50
2022-10-13T23:21:51.533Z,21.50
2022-10-13T23:24:20.724Z,21.50
2022-10-13T23:26:51.231Z,21.50
2022-10-13T23:29:20.372Z,21.50
2022-10-13T23:31:49.469Z,21.50
2022-10-13T23:34:18.987Z,21.50
2022-10-13T23:36:48.251Z,21.50
2022-10-13T23:39:17.348Z,21.50
2022-10-13T23:41:46.505Z,21.50
2022-10-13T23:44:17.978Z,21.50
2022-10-13T23:46:47.964Z,21.50
2022-10-13T23:49:18.791Z,21.50
2022-10-13T23:51:47.888Z,21.50
2022-10-13T23:54:17.029Z,21.50
2022-10-13T23:56:46.160Z,21.40
2022-10-13T23:59:15.303Z,21.50
